createdAt,value
2017-05-27T00:06:59.717Z,1010.3
2017-05-27T00:17:09.107Z,1010.1
2017-05-27T00:27:18.491Z,1010.1
2017-05-27T00:37:27.842Z,1010
2017-05-27T00:47:37.174Z,1010
2017-05-27T00:57:46.520Z,1010
2017-05-27T01:07:55.866Z,1009.9
2017-05-27T01:18:05.258Z,1009.9
2017-05-27T01:28:14.669Z,1009.9
2017-05-27T01:38:24.061Z,1009.8
2017-05-27T01:48:33.506Z,1009.8
2017-05-27T01:58:42.908Z,1009.9
2017-05-27T02:08:52.318Z,1009.8
2017-05-27T02:19:01.762Z,1010.1
2017-05-27T02:29:11.255Z,1010
2017-05-27T02:39:20.737Z,1010
2017-05-27T02:49:30.231Z,1010.1
2017-05-27T02:59:39.751Z,1010.1
2017-05-27T03:09:49.280Z,1010.1
2017-05-27T03:19:58.880Z,1010.1
2017-05-27T03:30:08.519Z,1010.1
2017-05-27T03:40:18.116Z,1010.2
2017-05-27T03:50:27.636Z,1010.2
2017-05-27T04:00:37.026Z,1010.2
2017-05-27T04:10:46.329Z,1010.2
2017-05-27T04:20:55.519Z,1010.4
2017-05-27T04:31:04.627Z,1010.5
2017-05-27T04:41:13.632Z,1010.5
2017-05-27T04:51:22.478Z,1010.5
2017-05-27T05:01:31.266Z,1010.5
2017-05-27T05:11:39.936Z,1010.5
2017-05-27T05:21:48.473Z,1010.6
2017-05-27T05:31:56.866Z,1010.4
2017-05-27T05:42:05.234Z,1010.6
2017-05-27T05:52:13.481Z,1010.4
2017-05-27T06:02:21.621Z,1010.6
2017-05-27T06:12:29.655Z,1010.6
2017-05-27T06:22:37.603Z,1010.5
2017-05-27T06:32:45.501Z,1010.5
2017-05-27T06:42:53.329Z,1010.6
2017-05-27T06:53:01.054Z,1010.6
2017-05-27T07:03:08.685Z,1010.6
2017-05-27T07:13:16.289Z,1010.4
2017-05-27T07:23:23.799Z,1010.4
2017-05-27T07:33:31.297Z,1010.4
2017-05-27T07:43:38.724Z,1010.3
2017-05-27T07:53:46.123Z,1010.3
2017-05-27T08:03:53.428Z,1010.3
2017-05-27T08:14:00.722Z,1010.3
2017-05-27T08:24:07.964Z,1010.2
2017-05-27T08:34:15.126Z,1010
2017-05-27T08:44:22.189Z,1010
2017-05-27T08:54:29.184Z,1010
2017-05-27T09:04:36.086Z,1010
2017-05-27T09:14:42.964Z,1009.9
2017-05-27T09:24:49.825Z,1009.7
2017-05-27T09:34:56.665Z,1009.7
2017-05-27T09:45:03.528Z,1009.6
2017-05-27T09:55:10.370Z,1009.6
2017-05-27T10:05:17.220Z,1009.5
2017-05-27T10:15:24.018Z,1009.3
2017-05-27T10:25:30.920Z,1009.3
2017-05-27T10:35:37.845Z,1009.1
2017-05-27T10:45:44.703Z,1009.1
2017-05-27T10:55:51.576Z,1008.8
2017-05-27T11:05:58.488Z,1008.9
2017-05-27T11:16:05.441Z,1008.6
2017-05-27T11:26:12.396Z,1008.6
2017-05-27T11:36:19.380Z,1008.6
2017-05-27T11:46:26.349Z,1008.4
2017-05-27T11:56:33.321Z,1008.5
2017-05-27T12:06:40.283Z,1008.5
2017-05-27T12:16:47.217Z,1008.4
2017-05-27T12:26:53.970Z,1008.4
2017-05-27T12:37:00.683Z,1008.3
2017-05-27T12:47:07.425Z,1008.2
2017-05-27T12:57:14.113Z,1008.1
2017-05-27T13:07:20.774Z,1007.8
2017-05-27T13:17:27.395Z,1008.1
2017-05-27T13:27:34.033Z,1007.9
2017-05-27T13:37:40.632Z,1007.8
2017-05-27T13:47:47.173Z,1007.8
2017-05-27T13:57:53.710Z,1007.6
2017-05-27T14:08:00.197Z,1007.5
2017-05-27T14:18:06.600Z,1007.4
2017-05-27T14:28:12.976Z,1007.3
2017-05-27T14:38:19.366Z,1007.3
2017-05-27T14:48:25.740Z,1007.2
2017-05-27T14:58:32.077Z,1007
2017-05-27T15:08:38.513Z,1006.9
2017-05-27T15:18:45.229Z,1007.1
2017-05-27T15:28:51.771Z,1007
2017-05-27T15:38:58.182Z,1007
2017-05-27T15:49:04.482Z,1006.8
2017-05-27T15:59:10.735Z,1006.8
2017-05-27T16:09:16.917Z,1006.6
2017-05-27T16:19:23.191Z,1006.7
2017-05-27T16:29:29.584Z,1006.7
2017-05-27T16:39:36.032Z,1006.7
2017-05-27T16:49:42.533Z,1006.7
2017-05-27T16:59:49.169Z,1006.6
2017-05-27T17:09:55.865Z,1006.4
2017-05-27T17:20:02.707Z,1006.4
2017-05-27T17:30:09.812Z,1006.5
2017-05-27T17:40:16.821Z,1006.5
2017-05-27T17:50:23.846Z,1006.4
2017-05-27T18:00:30.939Z,1006.4
2017-05-27T18:10:38.082Z,1006.4
2017-05-27T18:20:45.324Z,1006.4
2017-05-27T18:30:52.652Z,1006.4
2017-05-27T18:40:59.990Z,1006.5
2017-05-27T18:51:07.450Z,1006.6
2017-05-27T19:01:15.045Z,1006.6
2017-05-27T19:11:22.827Z,1006.7
2017-05-27T19:21:30.765Z,1006.6
2017-05-27T19:31:38.831Z,1006.8
2017-05-27T19:41:47.039Z,1006.8
2017-05-27T19:51:55.366Z,1006.9
2017-05-27T20:02:03.735Z,1007.1
2017-05-27T20:12:12.132Z,1007.2
2017-05-27T20:22:20.553Z,1007.2
2017-05-27T20:32:29.005Z,1007.4
2017-05-27T20:42:37.503Z,1007.3
2017-05-27T20:52:46.009Z,1007.3
2017-05-27T21:02:54.538Z,1007.4
2017-05-27T21:13:02.995Z,1007.4
2017-05-27T21:23:11.460Z,1007.5
2017-05-27T21:33:19.907Z,1007.6
2017-05-27T21:53:36.959Z,1007.3
2017-05-27T22:03:45.491Z,1007.4
2017-05-27T22:13:54.042Z,1007.3
2017-05-27T22:24:02.586Z,1007.3
2017-05-27T22:34:11.211Z,1007.3
2017-05-27T22:44:19.766Z,1007.3
2017-05-27T22:54:28.398Z,1007.3
2017-05-27T23:04:37.023Z,1007.4
2017-05-27T23:14:45.676Z,1007.4
2017-05-27T23:24:54.358Z,1007.4
2017-05-27T23:35:03.034Z,1007.3
2017-05-27T23:45:11.708Z,1007.6
2017-05-27T23:55:20.480Z,1007.6
